Time;durP1;ratioP1;P1;durP2;ratioP2;P2;SDS_P1;SDS_P2;PMS_P1;PMS_P2;Temp;Humidity;BMP_temperature;BMP_pressure;BME280_temperature;BME280_humidity;BME280_pressure;Samples;Min_cycle;Max_cycle;Signal;HPM_P1;HPM_P2
2021/05/10 00:01:29;;;;;;;5.80;2.35;;;332.90;1817.60;;;;;;5101045;28;20131;-79
2021/05/10 00:03:54;;;;;;;3.20;1.83;;;332.90;1817.60;;;;;;5095627;28;20107;-79
2021/05/10 00:06:20;;;;;;;2.95;1.88;;;332.80;1817.60;;;;;;5095446;28;20529;-78
2021/05/10 00:08:47;;;;;;;2.53;1.73;;;332.80;1843.20;;;;;;5095715;28;20044;-79
2021/05/10 00:11:14;;;;;;;4.78;2.20;;;332.80;1817.60;;;;;;5094518;28;20119;-78
2021/05/10 00:13:45;;;;;;;4.65;2.45;;;332.80;1817.60;;;;;;5101331;28;20026;-79
2021/05/10 00:16:11;;;;;;;6.45;3.25;;;332.80;1817.60;;;;;;5098323;28;20012;-78
2021/05/10 00:18:37;;;;;;;6.57;2.47;;;332.80;1817.60;;;;;;5096072;28;20110;-79
2021/05/10 00:21:03;;;;;;;7.97;2.28;;;332.90;1817.60;;;;;;5108046;28;20031;-79
2021/05/10 00:23:29;;;;;;;3.88;2.10;;;308.10;1792.00;;;;;;5114380;28;20027;-78
2021/05/10 00:25:54;;;;;;;3.63;2.03;;;308.10;1817.60;;;;;;5103068;28;20021;-79
2021/05/10 00:28:20;;;;;;;5.05;1.98;;;308.10;1817.60;;;;;;5099314;28;20032;-79
2021/05/10 00:30:46;;;;;;;;;;;332.80;1817.60;;;;;;5115280;28;20028;-79
2021/05/10 00:33:12;;;;;;;4.82;2.15;;;332.80;1817.60;;;;;;5098721;28;20044;-78
2021/05/10 00:35:37;;;;;;;;;;;332.80;1843.20;;;;;;5095621;28;20035;-79
2021/05/10 00:38:03;;;;;;;4.20;2.15;;;308.10;1817.60;;;;;;5097321;28;19991;-79
2021/05/10 00:40:31;;;;;;;3.28;2.00;;;308.00;1817.60;;;;;;5107800;28;20024;-78
2021/05/10 00:42:58;;;;;;;5.63;2.35;;;307.90;1843.20;;;;;;5093830;28;20032;-79
2021/05/10 00:45:24;;;;;;;5.05;2.08;;;307.90;1843.20;;;;;;5095732;28;20055;-79
2021/05/10 00:47:50;;;;;;;11.52;1.90;;;307.90;1843.20;;;;;;5095373;28;20032;-79
2021/05/10 00:50:17;;;;;;;5.22;2.50;;;308.00;1817.60;;;;;;5094509;28;20020;-79
2021/05/10 00:52:43;;;;;;;2.65;1.77;;;333.00;1843.20;;;;;;5109024;28;20048;-79
2021/05/10 00:55:11;;;;;;;4.05;1.60;;;308.10;1817.60;;;;;;5095501;28;20372;-79
2021/05/10 00:57:43;;;;;;;4.78;2.10;;;308.10;1792.00;;;;;;5108176;28;20062;-79
2021/05/10 01:00:11;;;;;;;5.72;2.40;;;308.00;1817.60;;;;;;5103872;28;20387;-79
2021/05/10 01:02:38;;;;;;;4.05;1.77;;;308.00;1817.60;;;;;;5113967;28;20114;-79
2021/05/10 01:05:05;;;;;;;5.80;1.98;;;308.00;1817.60;;;;;;5115415;28;20023;-78
2021/05/10 01:07:32;;;;;;;8.95;2.20;;;308.00;1817.60;;;;;;5115297;28;20463;-78
2021/05/10 01:09:58;;;;;;;5.22;2.13;;;307.90;1817.60;;;;;;5100089;28;20056;-78
2021/05/10 01:12:24;;;;;;;2.97;1.90;;;307.90;1817.60;;;;;;5115675;28;20030;-78
2021/05/10 01:14:50;;;;;;;6.63;2.05;;;307.90;1817.60;;;;;;5115200;28;20023;-79
2021/05/10 01:17:16;;;;;;;3.97;1.92;;;307.90;1817.60;;;;;;5115457;28;20020;-79
2021/05/10 01:19:42;;;;;;;3.22;1.73;;;307.90;1817.60;;;;;;5115194;28;20032;-79
2021/05/10 01:22:10;;;;;;;5.05;2.33;;;307.90;1817.60;;;;;;5106466;28;20028;-79
2021/05/10 01:24:36;;;;;;;9.00;2.08;;;307.90;1817.60;;;;;;5106704;28;20027;-79
2021/05/10 01:27:03;;;;;;;6.47;2.10;;;307.70;1817.60;;;;;;5093912;28;20019;-79
2021/05/10 01:29:29;;;;;;;3.90;2.13;;;307.80;1817.60;;;;;;5106091;28;20160;-78
2021/05/10 01:31:55;;;;;;;7.28;2.28;;;307.70;1843.20;;;;;;5095308;28;20035;-79
2021/05/10 01:34:21;;;;;;;5.80;2.00;;;307.60;1843.20;;;;;;5094673;28;20032;-79
2021/05/10 01:36:46;;;;;;;4.68;2.17;;;307.60;1843.20;;;;;;5094361;28;20023;-78
2021/05/10 01:39:12;;;;;;;4.15;2.30;;;307.50;1843.20;;;;;;5102272;28;20028;-79
2021/05/10 01:41:38;;;;;;;5.45;2.70;;;307.30;1868.80;;;;;;5103490;28;20116;-79
2021/05/10 01:44:04;;;;;;;;;;;307.40;1868.80;;;;;;5094831;28;20078;-78
2021/05/10 01:46:30;;;;;;;4.63;2.17;;;307.50;1868.80;;;;;;5102134;28;19958;-79
2021/05/10 01:48:55;;;;;;;;;;;307.40;1868.80;;;;;;5099741;28;20055;-79
2021/05/10 01:51:26;;;;;;;3.55;2.15;;;307.40;1868.80;;;;;;5092640;28;20390;-79
2021/05/10 01:53:52;;;;;;;3.50;1.83;;;307.40;1868.80;;;;;;5106644;28;20114;-78
2021/05/10 01:56:18;;;;;;;4.93;2.65;;;307.40;1868.80;;;;;;5107498;28;20479;-77
2021/05/10 01:58:53;;;;;;;5.60;1.63;;;307.50;1868.80;;;;;;5094172;28;20020;-79
2021/05/10 02:01:20;;;;;;;10.48;2.38;;;307.50;1868.80;;;;;;5097857;28;20020;-79
2021/05/10 02:03:46;;;;;;;3.53;2.03;;;307.50;1868.80;;;;;;5103043;28;20020;-79
2021/05/10 02:06:12;;;;;;;5.22;2.72;;;307.50;1843.20;;;;;;5093975;28;20028;-79
2021/05/10 02:08:38;;;;;;;7.78;2.28;;;307.50;1843.20;;;;;;5103153;28;20059;-78
2021/05/10 02:11:04;;;;;;;5.28;2.20;;;307.40;1843.20;;;;;;5112823;28;20063;-79
2021/05/10 02:13:29;;;;;;;;;;;307.50;1843.20;;;;;;5107058;28;20517;-78
2021/05/10 02:16:01;;;;;;;6.97;2.10;;;307.40;1868.80;;;;;;5106163;28;19903;-78
2021/05/10 02:18:30;;;;;;;7.32;2.65;;;307.30;1868.80;;;;;;5108140;28;20024;-79
2021/05/10 02:20:56;;;;;;;6.25;2.40;;;307.30;1894.40;;;;;;5093247;28;20454;-78
2021/05/10 02:23:27;;;;;;;8.25;2.15;;;307.30;1868.80;;;;;;5093473;28;20026;-79
2021/05/10 02:25:55;;;;;;;6.95;2.65;;;307.30;1868.80;;;;;;5105166;28;20050;-78
2021/05/10 02:28:23;;;;;;;5.30;2.20;;;307.30;1868.80;;;;;;5095692;28;20067;-79
2021/05/10 02:30:50;;;;;;;9.52;2.25;;;307.40;1868.80;;;;;;5092117;28;20025;-78
2021/05/10 02:33:19;;;;;;;9.90;2.35;;;307.40;1868.80;;;;;;5095335;28;20028;-78
2021/05/10 02:35:46;;;;;;;7.80;2.50;;;307.50;1843.20;;;;;;5105037;28;20031;-79
2021/05/10 02:38:13;;;;;;;8.10;2.60;;;307.40;1868.80;;;;;;5091721;28;20072;-79
2021/05/10 02:40:39;;;;;;;4.63;2.25;;;307.50;1843.20;;;;;;5096213;28;20488;-79
2021/05/10 02:43:06;;;;;;;5.75;2.50;;;307.30;1868.80;;;;;;5091526;28;20373;-78
2021/05/10 02:45:32;;;;;;;8.25;2.40;;;307.30;1868.80;;;;;;5106241;28;20156;-79
2021/05/10 02:47:58;;;;;;;6.15;2.50;;;307.30;1868.80;;;;;;5093022;28;20107;-79
2021/05/10 02:50:26;;;;;;;5.07;2.30;;;307.40;1868.80;;;;;;5093279;28;20024;-78
2021/05/10 02:52:52;;;;;;;11.30;2.22;;;307.50;1843.20;;;;;;5111183;28;20047;-78
2021/05/10 02:55:19;;;;;;;11.95;3.45;;;307.20;1843.20;;;;;;5100241;28;20107;-78
2021/05/10 02:57:45;;;;;;;6.35;2.55;;;307.50;1817.60;;;;;;5110979;28;20102;-79
2021/05/10 03:00:13;;;;;;;10.63;2.50;;;307.50;1843.20;;;;;;5103140;28;20100;-79
2021/05/10 03:02:39;;;;;;;10.88;3.38;;;307.50;1817.60;;;;;;5105793;28;20036;-79
2021/05/10 03:05:07;;;;;;;10.35;3.78;;;307.50;1843.20;;;;;;5091391;28;20115;-79
2021/05/10 03:07:33;;;;;;;8.65;2.00;;;307.50;1843.20;;;;;;5106940;28;20110;-79
2021/05/10 03:09:59;;;;;;;10.93;2.58;;;307.40;1843.20;;;;;;5092616;28;20098;-79
2021/05/10 03:12:25;;;;;;;13.90;2.95;;;307.40;1843.20;;;;;;5092768;28;20028;-79
2021/05/10 03:14:51;;;;;;;7.13;2.22;;;307.50;1817.60;;;;;;5095201;28;20020;-79
2021/05/10 03:17:17;;;;;;;8.68;2.03;;;307.40;1843.20;;;;;;5107944;28;20032;-78
2021/05/10 03:19:43;;;;;;;8.05;2.30;;;307.50;1817.60;;;;;;5108498;28;20106;-79
2021/05/10 03:22:08;;;;;;;6.72;2.10;;;307.50;1817.60;;;;;;5095467;28;20123;-79
2021/05/10 03:24:34;;;;;;;;;;;307.40;1843.20;;;;;;5107497;28;20367;-79
2021/05/10 03:27:00;;;;;;;6.47;2.05;;;307.40;1843.20;;;;;;5103154;28;19904;-79
2021/05/10 03:29:25;;;;;;;;;;;307.50;1817.60;;;;;;5107087;28;20103;-79
2021/05/10 03:31:51;;;;;;;7.35;2.20;;;307.50;1817.60;;;;;;5094995;28;19932;-78
2021/05/10 03:34:17;;;;;;;7.90;2.47;;;307.50;1817.60;;;;;;5104914;28;20036;-79
2021/05/10 03:36:42;;;;;;;5.07;2.33;;;307.50;1817.60;;;;;;5092652;28;20418;-78
2021/05/10 03:39:08;;;;;;;;;;;307.60;1817.60;;;;;;5103306;28;20379;-79
2021/05/10 03:41:34;;;;;;;13.43;2.40;;;307.60;1817.60;;;;;;5104351;27;19950;-78
2021/05/10 03:43:59;;;;;;;;;;;307.70;1792.00;;;;;;5092581;28;20379;-78
2021/05/10 03:46:26;;;;;;;13.23;2.38;;;307.70;1792.00;;;;;;5092108;28;19904;-78
2021/05/10 03:48:52;;;;;;;4.20;1.88;;;307.80;1766.40;;;;;;5106647;28;20036;-78
2021/05/10 03:51:18;;;;;;;11.25;2.50;;;308.00;1740.80;;;;;;5104129;28;20104;-79
2021/05/10 03:53:43;;;;;;;11.07;2.28;;;308.10;1715.20;;;;;;5103256;28;20368;-78
2021/05/10 03:56:12;;;;;;;8.73;2.25;;;332.80;1715.20;;;;;;5111110;28;20027;-79
2021/05/10 03:58:38;;;;;;;9.68;2.22;;;333.00;1689.60;;;;;;5101160;28;20027;-78
2021/05/10 04:01:04;;;;;;;8.35;2.25;;;333.00;1689.60;;;;;;5091910;28;20020;-78
2021/05/10 04:03:36;;;;;;;15.50;3.08;;;333.30;1664.00;;;;;;5091860;28;20034;-79
2021/05/10 04:09:04;;;;;;;5.05;1.98;;;333.30;1664.00;;;;;;5091925;28;20042;-79
2021/05/10 04:14:13;;;;;;;3.33;1.70;;;333.40;1638.40;;;;;;5098964;28;20387;-79
2021/05/10 04:16:39;;;;;;;3.75;1.65;;;333.50;1638.40;;;;;;5110084;28;20031;-80
2021/05/10 04:19:05;;;;;;;6.65;2.15;;;333.60;1638.40;;;;;;5112117;28;20023;-79
2021/05/10 04:21:31;;;;;;;4.30;1.80;;;333.60;1638.40;;;;;;5107586;28;20017;-80
2021/05/10 04:23:56;;;;;;;9.73;2.13;;;333.70;1638.40;;;;;;5099906;28;20115;-79
2021/05/10 04:26:22;;;;;;;7.63;2.53;;;333.70;1612.80;;;;;;5111054;28;20467;-80
2021/05/10 04:28:48;;;;;;;4.03;1.80;;;358.40;1587.20;;;;;;5090504;28;20043;-80
2021/05/10 04:31:13;;;;;;;5.10;1.38;;;358.40;1561.60;;;;;;5091474;28;20430;-80
2021/05/10 04:33:39;;;;;;;5.07;1.70;;;358.50;1536.00;;;;;;5091402;28;20115;-79
2021/05/10 04:36:05;;;;;;;2.90;1.73;;;358.50;1536.00;;;;;;5090781;28;20476;-79
2021/05/10 04:38:31;;;;;;;5.22;2.05;;;358.60;1536.00;;;;;;5090378;28;20017;-80
2021/05/10 04:40:59;;;;;;;3.13;1.42;;;358.70;1536.00;;;;;;5095657;28;20111;-80
2021/05/10 04:43:25;;;;;;;5.38;1.85;;;358.80;1536.00;;;;;;5111111;28;20035;-79
2021/05/10 04:45:51;;;;;;;5.20;1.40;;;358.80;1484.80;;;;;;5110469;28;20028;-80
2021/05/10 04:48:17;;;;;;;3.85;1.60;;;358.90;1510.40;;;;;;5111127;28;20118;-80
2021/05/10 04:50:43;;;;;;;3.10;1.48;;;359.00;1484.80;;;;;;5097345;28;20103;-80
2021/05/10 04:53:13;;;;;;;9.43;1.50;;;359.00;1484.80;;;;;;5111940;28;20182;-80
2021/05/10 04:55:40;;;;;;;3.28;1.55;;;359.10;1459.20;;;;;;5111278;28;20024;-80
2021/05/10 04:58:06;;;;;;;4.93;1.58;;;359.10;1459.20;;;;;;5090237;28;20081;-80
2021/05/10 05:00:32;;;;;;;5.15;1.48;;;359.30;1484.80;;;;;;5104056;28;20433;-78
2021/05/10 05:02:57;;;;;;;8.90;2.40;;;384.00;1433.60;;;;;;5103094;28;20074;-79
2021/05/10 05:05:23;;;;;;;3.03;1.45;;;384.00;1459.20;;;;;;5095011;28;20024;-77
2021/05/10 05:07:49;;;;;;;6.60;1.60;;;384.10;1433.60;;;;;;5100436;28;20491;-76
2021/05/10 05:10:15;;;;;;;6.82;1.38;;;384.30;1408.00;;;;;;5103731;28;20011;-77
2021/05/10 05:12:41;;;;;;;5.07;1.52;;;384.30;1382.40;;;;;;5113194;28;20031;-78
2021/05/10 05:15:09;;;;;;;3.70;1.60;;;384.40;1382.40;;;;;;5114930;28;20026;-79
2021/05/10 05:17:36;;;;;;;10.38;1.67;;;384.50;1356.80;;;;;;5113858;28;20023;-79
2021/05/10 05:20:03;;;;;;;3.25;1.40;;;384.60;1382.40;;;;;;5114594;28;20031;-78
2021/05/10 05:22:29;;;;;;;18.10;2.25;;;384.70;1356.80;;;;;;5103598;28;20024;-78
2021/05/10 05:24:56;;;;;;;7.97;2.00;;;384.90;1356.80;;;;;;5101244;28;20019;-79
2021/05/10 05:27:23;;;;;;;6.00;1.63;;;409.60;1382.40;;;;;;5094827;28;20059;-78
2021/05/10 05:29:49;;;;;;;3.72;1.83;;;409.70;1356.80;;;;;;5099669;28;20725;-77
2021/05/10 05:32:15;;;;;;;7.45;2.33;;;409.80;1331.20;;;;;;5100354;28;20027;-77
2021/05/10 05:34:40;;;;;;;2.95;1.80;;;409.90;1356.80;;;;;;5104710;28;20103;-78
2021/05/10 05:37:06;;;;;;;4.00;1.92;;;410.00;1331.20;;;;;;5107468;28;20031;-78
2021/05/10 05:39:32;;;;;;;3.70;1.67;;;410.10;1331.20;;;;;;5094301;28;20020;-79
2021/05/10 05:41:59;;;;;;;4.38;1.50;;;410.20;1356.80;;;;;;5107482;28;20379;-78
2021/05/10 05:44:25;;;;;;;5.00;1.70;;;410.30;1305.60;;;;;;5094498;28;20021;-79
2021/05/10 05:47:00;;;;;;;4.50;1.52;;;410.40;1305.60;;;;;;5105856;28;20023;-77
2021/05/10 05:49:26;;;;;;;6.25;1.50;;;410.50;1305.60;;;;;;5110189;28;20032;-78
2021/05/10 05:51:52;;;;;;;7.72;1.50;;;435.20;1280.00;;;;;;5102528;27;20125;-78
2021/05/10 05:54:18;;;;;;;5.45;1.90;;;435.30;1280.00;;;;;;5103368;28;20019;-79
2021/05/10 05:56:43;;;;;;;7.65;1.85;;;435.40;1254.40;;;;;;5095064;28;20036;-82
2021/05/10 05:59:09;;;;;;;5.53;2.10;;;435.50;1254.40;;;;;;5102319;28;20867;-79
2021/05/10 06:01:35;;;;;;;5.05;2.05;;;435.50;1203.20;;;;;;5096154;28;20024;-76
2021/05/10 06:04:01;;;;;;;7.63;1.48;;;435.60;1228.80;;;;;;5108046;28;20055;-80
2021/05/10 06:06:27;;;;;;;6.55;1.50;;;435.80;1203.20;;;;;;5097261;28;20028;-79
2021/05/10 06:08:53;;;;;;;14.05;1.80;;;435.80;1228.80;;;;;;5108643;28;20036;-78
2021/05/10 06:11:19;;;;;;;7.80;1.95;;;435.90;1203.20;;;;;;5100744;28;20019;-78
2021/05/10 06:13:44;;;;;;;5.10;2.65;;;436.10;1228.80;;;;;;5103665;28;20028;-80
2021/05/10 06:16:10;;;;;;;6.20;1.98;;;460.80;1228.80;;;;;;5108507;27;20024;-79
2021/05/10 06:18:36;;;;;;;4.78;1.70;;;460.80;1203.20;;;;;;5095483;28;20036;-79
2021/05/10 06:21:05;;;;;;;4.00;1.55;;;460.90;1203.20;;;;;;5105872;28;20449;-80
2021/05/10 06:23:31;;;;;;;4.82;1.75;;;461.10;1203.20;;;;;;5112261;28;20038;-79
2021/05/10 06:25:57;;;;;;;3.50;1.35;;;461.20;1203.20;;;;;;5111892;28;20028;-78
2021/05/10 06:28:23;;;;;;;5.40;1.77;;;461.30;1177.60;;;;;;5095133;28;20082;-79
2021/05/10 06:30:48;;;;;;;5.88;1.75;;;461.40;1152.00;;;;;;5098715;28;20073;-75
2021/05/10 06:33:14;;;;;;;9.82;1.80;;;461.40;1152.00;;;;;;5104592;28;20383;-77
2021/05/10 06:35:40;;;;;;;9.07;2.50;;;461.50;1152.00;;;;;;5095772;28;20099;-78
2021/05/10 06:38:06;;;;;;;5.57;2.47;;;461.60;1152.00;;;;;;5088234;28;20043;-77
2021/05/10 06:40:32;;;;;;;4.90;1.75;;;461.70;1152.00;;;;;;5105122;28;20016;-77
2021/05/10 06:42:57;;;;;;;4.55;1.60;;;486.40;1152.00;;;;;;5093372;28;20031;-77
2021/05/10 06:45:23;;;;;;;6.35;2.47;;;486.40;1177.60;;;;;;5093028;28;20023;-81
2021/05/10 06:47:50;;;;;;;3.85;2.10;;;486.50;1152.00;;;;;;5093046;28;20031;-78
2021/05/10 06:50:16;;;;;;;5.95;2.15;;;486.70;1152.00;;;;;;5093934;28;20153;-79
2021/05/10 06:52:42;;;;;;;6.57;2.30;;;486.70;1152.00;;;;;;5100259;28;20492;-78
2021/05/10 06:55:09;;;;;;;6.00;1.80;;;486.90;1177.60;;;;;;5095556;28;20020;-78
2021/05/10 06:57:35;;;;;;;15.57;2.70;;;486.80;1126.40;;;;;;5102094;28;20016;-79
2021/05/10 07:00:01;;;;;;;7.13;2.17;;;487.00;1152.00;;;;;;5098521;28;20545;-78
2021/05/10 07:02:27;;;;;;;6.68;1.98;;;487.30;1126.40;;;;;;5105832;28;20035;-78
2021/05/10 07:04:53;;;;;;;7.50;1.67;;;512.00;1100.80;;;;;;5105044;28;20027;-79
2021/05/10 07:07:19;;;;;;;4.40;1.63;;;512.00;1100.80;;;;;;5105730;28;20016;-79
2021/05/10 07:09:45;;;;;;;10.55;1.98;;;512.20;1075.20;;;;;;5101293;28;20020;-79
2021/05/10 07:12:12;;;;;;;6.35;2.03;;;512.10;1100.80;;;;;;5103166;28;20081;-79
2021/05/10 07:14:39;;;;;;;4.55;1.70;;;512.40;1075.20;;;;;;5111785;28;20073;-78
2021/05/10 07:17:04;;;;;;;9.73;1.98;;;512.30;1049.60;;;;;;5104017;28;20012;-78
2021/05/10 07:19:30;;;;;;;3.13;1.70;;;512.30;1049.60;;;;;;5101571;28;20108;-79
2021/05/10 07:21:56;;;;;;;6.72;2.28;;;512.40;1075.20;;;;;;5107740;28;20027;-79
2021/05/10 07:24:22;;;;;;;6.90;1.75;;;512.50;1075.20;;;;;;5098411;28;20024;-79
2021/05/10 07:26:47;;;;;;;3.25;1.85;;;512.60;1049.60;;;;;;5096611;28;20016;-79
2021/05/10 07:29:13;;;;;;;5.22;1.92;;;512.80;1075.20;;;;;;5101220;28;20039;-79
2021/05/10 07:36:46;;;;;;;7.65;2.35;;;537.60;1075.20;;;;;;5028542;23;20049;-76
2021/05/10 07:39:12;;;;;;;3.35;1.70;;;537.80;1100.80;;;;;;5032287;28;20408;-79
2021/05/10 07:41:37;;;;;;;9.63;2.00;;;537.90;1075.20;;;;;;5013791;28;20079;-81
2021/05/10 07:44:04;;;;;;;6.30;2.38;;;537.90;1075.20;;;;;;5014421;28;20433;-79
2021/05/10 07:46:29;;;;;;;6.90;2.30;;;538.10;1100.80;;;;;;5014381;28;20033;-79
2021/05/10 07:48:55;;;;;;;8.07;2.35;;;538.20;1049.60;;;;;;5014542;28;20052;-80
2021/05/10 07:51:21;;;;;;;2.78;1.80;;;538.30;1100.80;;;;;;5014271;28;20025;-81
2021/05/10 07:53:47;;;;;;;4.47;2.50;;;538.40;1075.20;;;;;;5013631;28;20057;-78
2021/05/10 07:56:13;;;;;;;6.47;2.88;;;538.40;1075.20;;;;;;5013688;28;20018;-76
2021/05/10 07:58:42;;;;;;;5.65;2.70;;;563.20;1126.40;;;;;;5031638;28;20047;-80
2021/05/10 08:01:08;;;;;;;6.38;2.28;;;563.30;1075.20;;;;;;5005766;28;20028;-81
2021/05/10 08:03:34;;;;;;;11.00;2.53;;;538.50;1049.60;;;;;;5013584;28;20448;-79
2021/05/10 08:06:01;;;;;;;5.20;2.10;;;538.50;1049.60;;;;;;5032234;28;20037;-79
2021/05/10 08:08:27;;;;;;;7.72;2.60;;;538.50;1049.60;;;;;;5031659;28;20393;-79
2021/05/10 08:10:53;;;;;;;4.25;1.95;;;563.20;1049.60;;;;;;5032467;28;20026;-79
2021/05/10 08:13:19;;;;;;;5.43;2.80;;;563.30;1075.20;;;;;;5031604;28;20108;-79
2021/05/10 08:15:45;;;;;;;7.05;2.70;;;563.40;1075.20;;;;;;5013945;28;20125;-78
2021/05/10 08:18:12;;;;;;;5.50;2.72;;;563.50;1100.80;;;;;;5031823;28;20072;-77
2021/05/10 08:20:43;;;;;;;7.85;2.83;;;563.80;1075.20;;;;;;5013899;28;20448;-78
2021/05/10 08:23:09;;;;;;;5.07;2.40;;;563.60;1075.20;;;;;;5013748;28;20156;-81
2021/05/10 08:25:35;;;;;;;4.80;2.58;;;563.50;1049.60;;;;;;5031775;28;20049;-79
2021/05/10 08:28:01;;;;;;;4.53;2.50;;;563.80;1049.60;;;;;;5031644;28;20033;-78
2021/05/10 08:30:27;;;;;;;8.77;2.50;;;563.80;1075.20;;;;;;5031658;28;20040;-79
2021/05/10 08:32:54;;;;;;;7.20;2.25;;;564.00;1075.20;;;;;;5031782;28;20022;-79
2021/05/10 08:35:20;;;;;;;9.38;2.63;;;563.80;1049.60;;;;;;5030994;28;20072;-79
2021/05/10 08:37:45;;;;;;;8.77;2.63;;;563.80;1049.60;;;;;;5034533;28;20022;-78
2021/05/10 08:40:11;;;;;;;6.95;2.45;;;564.10;1075.20;;;;;;5035426;28;20049;-79
2021/05/10 08:42:38;;;;;;;8.10;2.50;;;564.10;1049.60;;;;;;5035645;28;20025;-78
2021/05/10 08:45:05;;;;;;;11.20;3.13;;;588.80;1049.60;;;;;;5035601;28;20041;-79
2021/05/10 08:47:33;;;;;;;7.60;3.05;;;588.90;1075.20;;;;;;5017833;28;20045;-79
2021/05/10 08:50:00;;;;;;;7.10;2.55;;;589.00;1075.20;;;;;;5017785;28;20035;-78
2021/05/10 08:52:27;;;;;;;5.85;2.55;;;589.10;1049.60;;;;;;5035371;28;20017;-78
2021/05/10 08:54:53;;;;;;;11.23;2.88;;;589.20;1024.00;;;;;;5017733;28;20032;-79
2021/05/10 08:57:18;;;;;;;12.02;3.22;;;589.40;1024.00;;;;;;5035094;28;20104;-78
2021/05/10 08:59:44;;;;;;;11.25;3.22;;;589.40;1024.00;;;;;;5035452;28;20030;-80
2021/05/10 09:02:10;;;;;;;7.75;2.60;;;589.40;1049.60;;;;;;5034480;28;20022;-79
2021/05/10 09:04:38;;;;;;;11.05;2.65;;;589.60;1024.00;;;;;;5016977;28;20026;-79
2021/05/10 09:07:22;;;;;;;8.25;3.15;;;614.40;1049.60;;;;;;5016999;28;20021;-77
2021/05/10 09:10:04;;;;;;;4.85;2.50;;;614.50;1024.00;;;;;;5015924;28;20042;-78
2021/05/10 09:12:51;;;;;;;5.75;2.67;;;614.70;1024.00;;;;;;5015825;28;20046;-77
2021/05/10 09:15:28;;;;;;;7.80;2.90;;;614.80;972.80;;;;;;5032290;28;20028;-78
2021/05/10 09:17:55;;;;;;;5.60;2.60;;;614.80;972.80;;;;;;5033982;28;20018;-78
2021/05/10 09:20:28;;;;;;;9.88;3.33;;;614.80;972.80;;;;;;5010703;28;20028;-78
2021/05/10 09:23:08;;;;;;;6.65;3.13;;;614.90;972.80;;;;;;5033309;28;20017;-78
2021/05/10 09:25:36;;;;;;;9.18;3.00;;;614.90;921.60;;;;;;5034023;28;20071;-78
2021/05/10 09:28:14;;;;;;;6.75;3.13;;;615.00;972.80;;;;;;5032030;28;20025;-81
2021/05/10 09:30:42;;;;;;;8.10;3.03;;;615.20;896.00;;;;;;5030480;28;20104;-79
2021/05/10 09:33:28;;;;;;;7.00;3.15;;;615.20;947.20;;;;;;5016410;28;20389;-79
2021/05/10 09:35:59;;;;;;;6.95;3.50;;;640.10;921.60;;;;;;5032714;28;20041;-78
2021/05/10 09:38:28;;;;;;;6.90;2.83;;;640.10;921.60;;;;;;5033948;28;20048;-78
2021/05/10 09:40:59;;;;;;;6.70;3.88;;;640.20;947.20;;;;;;5033870;28;20025;-77
2021/05/10 09:43:29;;;;;;;9.07;3.30;;;640.50;947.20;;;;;;5016101;28;20030;-78
2021/05/10 09:46:01;;;;;;;5.47;3.20;;;640.20;896.00;;;;;;5015770;28;20083;-78
2021/05/10 09:48:30;;;;;;;14.05;3.85;;;640.40;896.00;;;;;;5033101;28;20116;-78
2021/05/10 09:51:08;;;;;;;6.55;2.78;;;640.70;921.60;;;;;;5033567;28;20045;-78
2021/05/10 09:53:38;;;;;;;7.65;2.80;;;665.60;947.20;;;;;;5031055;28;20029;-78
2021/05/10 09:56:08;;;;;;;9.85;3.67;;;640.90;896.00;;;;;;5033583;28;20018;-78
2021/05/10 09:58:38;;;;;;;11.90;3.03;;;640.90;870.40;;;;;;5033534;28;20029;-77
2021/05/10 10:01:04;;;;;;;10.05;3.13;;;640.70;896.00;;;;;;5033844;28;20128;-77
2021/05/10 10:03:34;;;;;;;13.63;3.28;;;640.70;896.00;;;;;;5033436;28;20040;-78
2021/05/10 10:06:02;;;;;;;10.48;3.53;;;665.60;947.20;;;;;;5030989;28;20021;-77
2021/05/10 10:08:29;;;;;;;9.50;3.03;;;665.90;921.60;;;;;;5033207;28;20037;-78
2021/05/10 10:10:56;;;;;;;9.85;3.28;;;665.70;921.60;;;;;;5015648;28;20033;-78
2021/05/10 10:13:23;;;;;;;6.75;4.30;;;666.20;921.60;;;;;;5015184;28;20026;-78
2021/05/10 10:15:49;;;;;;;10.18;4.00;;;666.30;844.80;;;;;;5015133;28;20052;-77
2021/05/10 10:18:20;;;;;;;7.38;3.53;;;666.40;870.40;;;;;;5012384;28;20492;-78
2021/05/10 10:20:49;;;;;;;11.27;3.47;;;666.20;844.80;;;;;;5015258;28;20475;-78
2021/05/10 10:23:17;;;;;;;8.00;3.92;;;666.50;844.80;;;;;;5033752;28;20388;-78
2021/05/10 10:25:44;;;;;;;6.43;3.50;;;691.20;896.00;;;;;;5015040;28;20028;-78
2021/05/10 10:28:14;;;;;;;7.15;2.88;;;691.40;870.40;;;;;;5030342;28;20655;-79
2021/05/10 10:30:45;;;;;;;7.20;3.45;;;691.50;793.60;;;;;;5015100;28;20025;-78
2021/05/10 10:33:18;;;;;;;6.72;3.33;;;691.70;819.20;;;;;;5030783;28;20022;-78
2021/05/10 10:35:45;;;;;;;7.38;3.40;;;691.80;793.60;;;;;;5011272;28;20132;-78
2021/05/10 10:38:12;;;;;;;10.48;3.63;;;691.80;819.20;;;;;;5011513;28;20493;-78
2021/05/10 10:40:38;;;;;;;6.80;3.25;;;691.80;793.60;;;;;;5010403;28;20053;-76
2021/05/10 10:43:23;;;;;;;11.27;3.50;;;691.90;768.00;;;;;;5013120;28;20022;-78
2021/05/10 10:46:15;;;;;;;7.30;3.17;;;692.10;768.00;;;;;;5010514;28;20033;-78
2021/05/10 10:48:41;;;;;;;5.47;3.17;;;716.80;768.00;;;;;;5012394;28;20477;-77
2021/05/10 10:51:07;;;;;;;6.30;2.90;;;691.80;819.20;;;;;;4990227;28;20104;-78
2021/05/10 10:53:54;;;;;;;8.40;3.85;;;691.80;793.60;;;;;;4993625;28;20541;-77
2021/05/10 10:56:57;;;;;;;8.10;3.42;;;691.80;793.60;;;;;;4993737;28;20525;-77
2021/05/10 10:59:37;;;;;;;8.00;3.67;;;691.90;793.60;;;;;;4997250;28;20022;-79
2021/05/10 11:02:26;;;;;;;5.82;3.80;;;691.90;793.60;;;;;;4995037;28;20381;-80
2021/05/10 11:05:15;;;;;;;10.48;3.47;;;692.10;793.60;;;;;;5012851;28;20161;-79
2021/05/10 11:08:09;;;;;;;6.88;3.63;;;692.10;768.00;;;;;;4995422;28;20576;-77
2021/05/10 11:10:58;;;;;;;11.18;4.07;;;692.00;793.60;;;;;;4995653;28;20045;-78
2021/05/10 11:15:54;;;;;;;7.50;3.55;;;692.10;793.60;;;;;;5012853;28;20037;-77
2021/05/10 11:18:33;;;;;;;7.63;3.20;;;716.90;819.20;;;;;;4995239;28;20437;-78
2021/05/10 11:21:00;;;;;;;5.85;3.25;;;692.10;793.60;;;;;;4994549;28;20362;-78
2021/05/10 11:23:26;;;;;;;9.48;3.50;;;717.00;793.60;;;;;;4995285;28;20032;-78
2021/05/10 11:26:00;;;;;;;9.50;3.63;;;717.10;768.00;;;;;;5012519;28;20025;-77
2021/05/10 11:28:29;;;;;;;9.85;3.67;;;716.90;768.00;;;;;;5000520;28;20482;-78
2021/05/10 11:30:56;;;;;;;6.72;3.65;;;717.10;768.00;;;;;;4983981;28;20065;-77
2021/05/10 11:33:47;;;;;;;10.73;3.30;;;717.10;793.60;;;;;;4994133;28;20038;-77
2021/05/10 11:36:22;;;;;;;19.00;3.72;;;717.20;768.00;;;;;;5011289;28;20080;-78
2021/05/10 11:39:11;;;;;;;;;;;717.10;793.60;;;;;;5012537;28;20101;-78
2021/05/10 11:41:38;;;;;;;13.25;4.35;;;717.10;844.80;;;;;;4932355;28;19910;-78
2021/05/10 11:44:06;;;;;;;5.05;3.28;;;717.00;793.60;;;;;;4932519;29;20060;-78
2021/05/10 11:46:43;;;;;;;8.05;3.30;;;717.20;768.00;;;;;;4932982;29;20044;-79
2021/05/10 11:49:11;;;;;;;5.65;2.85;;;717.30;819.20;;;;;;4951603;29;20043;-78
2021/05/10 11:51:40;;;;;;;10.85;3.03;;;717.30;793.60;;;;;;4951918;28;20035;-78
2021/05/10 11:54:09;;;;;;;7.38;3.17;;;717.50;819.20;;;;;;4951867;28;20031;-78
2021/05/10 11:56:43;;;;;;;7.60;2.97;;;717.70;768.00;;;;;;4935864;29;20414;-76
2021/05/10 12:02:08;;;;;;;6.88;3.40;;;717.70;768.00;;;;;;4951552;28;20107;-77
2021/05/10 12:04:34;;;;;;;6.78;3.13;;;717.70;768.00;;;;;;4951540;29;20039;-76
2021/05/10 12:07:00;;;;;;;5.40;3.80;;;717.40;793.60;;;;;;4935594;29;20043;-77
2021/05/10 12:09:35;;;;;;;7.43;3.25;;;717.30;793.60;;;;;;4951636;29;20039;-74
2021/05/10 12:12:14;;;;;;;17.55;3.25;;;717.50;793.60;;;;;;4951373;28;20590;-77
2021/05/10 12:14:44;;;;;;;5.72;3.50;;;717.70;793.60;;;;;;4933195;29;20055;-76
2021/05/10 12:17:17;;;;;;;7.43;3.33;;;742.40;793.60;;;;;;4949308;28;20027;-76
2021/05/10 12:19:58;;;;;;;6.45;3.15;;;717.60;768.00;;;;;;5002736;28;20129;-76
2021/05/10 12:22:48;;;;;;;5.93;3.10;;;717.30;768.00;;;;;;4993183;28;20077;-77
2021/05/10 12:25:20;;;;;;;7.68;2.95;;;717.30;768.00;;;;;;5011422;28;20022;-75
2021/05/10 12:27:50;;;;;;;5.88;3.55;;;717.40;819.20;;;;;;5004927;28;20026;-75
2021/05/10 12:30:23;;;;;;;5.93;3.40;;;717.40;819.20;;;;;;4995670;28;20071;-76
2021/05/10 12:32:51;;;;;;;6.28;3.10;;;717.50;793.60;;;;;;5011553;28;20080;-76
2021/05/10 12:35:22;;;;;;;5.88;3.58;;;717.60;793.60;;;;;;5010409;28;20042;-78
2021/05/10 12:37:50;;;;;;;4.82;3.33;;;717.70;819.20;;;;;;4998608;28;20030;-78
2021/05/10 12:40:19;;;;;;;6.78;3.28;;;717.50;793.60;;;;;;4993443;28;20071;-78
2021/05/10 12:43:02;;;;;;;5.85;3.00;;;717.70;793.60;;;;;;5010538;28;20025;-77